HEAR

El Arish International Airport

El Arish, Egypt
TAF HEAR 230500Z 2306/2412 34010KT 9999 SCT025
Issued Valid From Valid To
Apr-23 @ 05:00 UTC
(5 hours ago)
Apr-23 @ 06:00 UTC
(4 hours ago)
Apr-24 @ 12:00 UTC
(-1 days ago)
Apr-23 @ 06:00 to Apr-24 @ 12:00
TAF HEAR 230500Z 2306/2412 34010KT 9999 SCT025
Wind Visibility Clouds
340° at 10 knots 10,000+ meters
  • Scattered at 2,500' AGL
TAF HEAR 230500Z 2306/2412 34010KT 9999 SCT025
Issued Apr-23 @ 05:00 UTC
(5 hours ago)
Valid From Apr-23 @ 06:00 UTC
(4 hours ago)
Valid To Apr-24 @ 12:00 UTC
(-1 days ago)
Apr-23 @ 06:00 - Apr-24 @ 12:00
Wind Visibility
340° at 10 knots 10,000+ meters
Clouds
  • Scattered at 2,500' AGL